sensor_id;sensor_type;location;lat;lon;timestamp;P1;durP1;ratioP1;P2;durP2;ratioP2
74465;SDS011;62916;50.044;15.938;2022-09-20T00:01:31;0.60;;;0.60;;
74465;SDS011;62916;50.044;15.938;2022-09-20T00:04:03;0.80;;;0.40;;
74465;SDS011;62916;50.044;15.938;2022-09-20T00:06:35;0.50;;;0.30;;
74465;SDS011;62916;50.044;15.938;2022-09-20T00:09:06;0.40;;;0.30;;
74465;SDS011;62916;50.044;15.938;2022-09-20T00:11:36;0.40;;;0.40;;
74465;SDS011;62916;50.044;15.938;2022-09-20T00:14:07;0.60;;;0.30;;
74465;SDS011;62916;50.044;15.938;2022-09-20T00:16:39;0.30;;;0.30;;
74465;SDS011;62916;50.044;15.938;2022-09-20T00:19:14;0.50;;;0.30;;
74465;SDS011;62916;50.044;15.938;2022-09-20T00:21:48;0.20;;;0.20;;
74465;SDS011;62916;50.044;15.938;2022-09-20T00:24:18;0.40;;;0.40;;
74465;SDS011;62916;50.044;15.938;2022-09-20T00:26:49;0.70;;;0.30;;
74465;SDS011;62916;50.044;15.938;2022-09-20T00:29:20;0.80;;;0.30;;
74465;SDS011;62916;50.044;15.938;2022-09-20T00:31:52;0.30;;;0.30;;
74465;SDS011;62916;50.044;15.938;2022-09-20T00:34:23;0.40;;;0.30;;
74465;SDS011;62916;50.044;15.938;2022-09-20T00:37:11;0.40;;;0.40;;
74465;SDS011;62916;50.044;15.938;2022-09-20T00:39:42;0.50;;;0.50;;
74465;SDS011;62916;50.044;15.938;2022-09-20T00:42:13;0.60;;;0.60;;
74465;SDS011;62916;50.044;15.938;2022-09-20T00:44:46;0.70;;;0.30;;
74465;SDS011;62916;50.044;15.938;2022-09-20T00:47:29;0.30;;;0.20;;
74465;SDS011;62916;50.044;15.938;2022-09-20T00:50:10;0.40;;;0.30;;
74465;SDS011;62916;50.044;15.938;2022-09-20T00:52:53;0.70;;;0.70;;
74465;SDS011;62916;50.044;15.938;2022-09-20T00:55:27;0.30;;;0.30;;
74465;SDS011;62916;50.044;15.938;2022-09-20T00:57:59;0.80;;;0.30;;
74465;SDS011;62916;50.044;15.938;2022-09-20T01:00:30;0.60;;;0.60;;
74465;SDS011;62916;50.044;15.938;2022-09-20T01:03:02;0.70;;;0.30;;
74465;SDS011;62916;50.044;15.938;2022-09-20T01:05:36;0.50;;;0.50;;
74465;SDS011;62916;50.044;15.938;2022-09-20T01:08:09;0.50;;;0.40;;
74465;SDS011;62916;50.044;15.938;2022-09-20T01:10:40;0.20;;;0.20;;
74465;SDS011;62916;50.044;15.938;2022-09-20T01:13:11;0.30;;;0.30;;
74465;SDS011;62916;50.044;15.938;2022-09-20T01:15:42;0.30;;;0.30;;
74465;SDS011;62916;50.044;15.938;2022-09-20T01:18:15;0.40;;;0.40;;
74465;SDS011;62916;50.044;15.938;2022-09-20T01:20:49;0.40;;;0.30;;
74465;SDS011;62916;50.044;15.938;2022-09-20T01:23:32;0.50;;;0.50;;
74465;SDS011;62916;50.044;15.938;2022-09-20T01:29:16;0.30;;;0.20;;
74465;SDS011;62916;50.044;15.938;2022-09-20T01:31:59;0.30;;;0.30;;
74465;SDS011;62916;50.044;15.938;2022-09-20T01:34:34;0.40;;;0.20;;
74465;SDS011;62916;50.044;15.938;2022-09-20T01:37:13;0.70;;;0.50;;
74465;SDS011;62916;50.044;15.938;2022-09-20T01:39:53;0.50;;;0.50;;
74465;SDS011;62916;50.044;15.938;2022-09-20T01:42:32;0.40;;;0.40;;
74465;SDS011;62916;50.044;15.938;2022-09-20T01:45:09;0.70;;;0.40;;
74465;SDS011;62916;50.044;15.938;2022-09-20T01:47:48;1.10;;;0.30;;
74465;SDS011;62916;50.044;15.938;2022-09-20T01:50:35;0.40;;;0.30;;
74465;SDS011;62916;50.044;15.938;2022-09-20T02:02:49;0.50;;;0.30;;
74465;SDS011;62916;50.044;15.938;2022-09-20T02:05:48;0.30;;;0.30;;
74465;SDS011;62916;50.044;15.938;2022-09-20T02:11:39;0.30;;;0.30;;
74465;SDS011;62916;50.044;15.938;2022-09-20T02:14:25;0.30;;;0.20;;
74465;SDS011;62916;50.044;15.938;2022-09-20T02:17:06;0.50;;;0.50;;
74465;SDS011;62916;50.044;15.938;2022-09-20T02:19:50;0.50;;;0.50;;
74465;SDS011;62916;50.044;15.938;2022-09-20T02:22:30;0.40;;;0.40;;
74465;SDS011;62916;50.044;15.938;2022-09-20T02:25:38;0.50;;;0.40;;
74465;SDS011;62916;50.044;15.938;2022-09-20T02:28:24;0.20;;;0.20;;
74465;SDS011;62916;50.044;15.938;2022-09-20T02:31:15;0.40;;;0.40;;
74465;SDS011;62916;50.044;15.938;2022-09-20T02:34:14;0.30;;;0.30;;
74465;SDS011;62916;50.044;15.938;2022-09-20T02:37:04;0.60;;;0.40;;
74465;SDS011;62916;50.044;15.938;2022-09-20T02:39:47;0.80;;;0.80;;
74465;SDS011;62916;50.044;15.938;2022-09-20T02:42:26;0.30;;;0.30;;
74465;SDS011;62916;50.044;15.938;2022-09-20T02:45:06;0.80;;;0.30;;
74465;SDS011;62916;50.044;15.938;2022-09-20T02:47:43;0.30;;;0.30;;
74465;SDS011;62916;50.044;15.938;2022-09-20T02:50:19;0.20;;;0.20;;
74465;SDS011;62916;50.044;15.938;2022-09-20T02:53:02;0.40;;;0.40;;
74465;SDS011;62916;50.044;15.938;2022-09-20T02:55:46;0.30;;;0.30;;
74465;SDS011;62916;50.044;15.938;2022-09-20T02:58:29;0.20;;;0.20;;
74465;SDS011;62916;50.044;15.938;2022-09-20T03:01:09;0.60;;;0.40;;
74465;SDS011;62916;50.044;15.938;2022-09-20T03:03:49;0.40;;;0.30;;
74465;SDS011;62916;50.044;15.938;2022-09-20T03:06:32;0.60;;;0.50;;
74465;SDS011;62916;50.044;15.938;2022-09-20T03:09:14;0.30;;;0.30;;
74465;SDS011;62916;50.044;15.938;2022-09-20T03:11:58;0.30;;;0.30;;
74465;SDS011;62916;50.044;15.938;2022-09-20T03:14:39;0.20;;;0.20;;
74465;SDS011;62916;50.044;15.938;2022-09-20T03:17:18;0.30;;;0.30;;
74465;SDS011;62916;50.044;15.938;2022-09-20T03:20:10;0.60;;;0.30;;
74465;SDS011;62916;50.044;15.938;2022-09-20T03:22:55;0.40;;;0.40;;
74465;SDS011;62916;50.044;15.938;2022-09-20T03:25:36;0.40;;;0.30;;
74465;SDS011;62916;50.044;15.938;2022-09-20T03:28:18;0.90;;;0.50;;
74465;SDS011;62916;50.044;15.938;2022-09-20T03:31:05;0.50;;;0.30;;
74465;SDS011;62916;50.044;15.938;2022-09-20T03:33:45;0.70;;;0.30;;
74465;SDS011;62916;50.044;15.938;2022-09-20T03:39:44;1.50;;;0.30;;
74465;SDS011;62916;50.044;15.938;2022-09-20T03:42:30;1.10;;;0.60;;
74465;SDS011;62916;50.044;15.938;2022-09-20T03:45:14;1.00;;;0.40;;
74465;SDS011;62916;50.044;15.938;2022-09-20T03:48:09;5.10;;;0.60;;
74465;SDS011;62916;50.044;15.938;2022-09-20T03:50:52;2.80;;;1.00;;
74465;SDS011;62916;50.044;15.938;2022-09-20T03:53:46;5.10;;;0.70;;
74465;SDS011;62916;50.044;15.938;2022-09-20T03:56:47;4.30;;;0.60;;
74465;SDS011;62916;50.044;15.938;2022-09-20T03:59:40;6.90;;;1.00;;
74465;SDS011;62916;50.044;15.938;2022-09-20T04:02:26;8.40;;;1.60;;
74465;SDS011;62916;50.044;15.938;2022-09-20T04:05:12;5.80;;;0.80;;
74465;SDS011;62916;50.044;15.938;2022-09-20T04:07:49;3.40;;;0.60;;
74465;SDS011;62916;50.044;15.938;2022-09-20T04:10:36;5.60;;;0.80;;
74465;SDS011;62916;50.044;15.938;2022-09-20T04:16:09;9.30;;;1.40;;
74465;SDS011;62916;50.044;15.938;2022-09-20T04:18:50;13.70;;;1.60;;
74465;SDS011;62916;50.044;15.938;2022-09-20T04:21:27;10.40;;;1.40;;
74465;SDS011;62916;50.044;15.938;2022-09-20T04:24:04;8.90;;;1.30;;
74465;SDS011;62916;50.044;15.938;2022-09-20T04:26:49;9.10;;;1.20;;
74465;SDS011;62916;50.044;15.938;2022-09-20T04:29:26;11.40;;;1.50;;
74465;SDS011;62916;50.044;15.938;2022-09-20T04:32:05;12.10;;;1.80;;
74465;SDS011;62916;50.044;15.938;2022-09-20T04:34:45;4.90;;;0.70;;
74465;SDS011;62916;50.044;15.938;2022-09-20T04:37:37;7.40;;;1.10;;
74465;SDS011;62916;50.044;15.938;2022-09-20T04:40:16;5.10;;;1.20;;
74465;SDS011;62916;50.044;15.938;2022-09-20T04:43:10;8.80;;;1.60;;
74465;SDS011;62916;50.044;15.938;2022-09-20T04:49:16;4.40;;;1.10;;
74465;SDS011;62916;50.044;15.938;2022-09-20T04:55:49;6.40;;;1.20;;
74465;SDS011;62916;50.044;15.938;2022-09-20T04:58:42;3.10;;;0.60;;
74465;SDS011;62916;50.044;15.938;2022-09-20T05:04:35;4.70;;;0.80;;
74465;SDS011;62916;50.044;15.938;2022-09-20T05:07:50;4.50;;;0.60;;
74465;SDS011;62916;50.044;15.938;2022-09-20T05:14:00;4.10;;;0.80;;
74465;SDS011;62916;50.044;15.938;2022-09-20T05:16:48;4.00;;;0.50;;
74465;SDS011;62916;50.044;15.938;2022-09-20T05:19:36;1.70;;;0.90;;
74465;SDS011;62916;50.044;15.938;2022-09-20T05:22:30;4.90;;;0.80;;
74465;SDS011;62916;50.044;15.938;2022-09-20T05:25:44;2.20;;;0.80;;
74465;SDS011;62916;50.044;15.938;2022-09-20T05:28:27;3.50;;;0.60;;
74465;SDS011;62916;50.044;15.938;2022-09-20T05:31:05;2.60;;;0.60;;
74465;SDS011;62916;50.044;15.938;2022-09-20T05:33:47;3.30;;;0.90;;
74465;SDS011;62916;50.044;15.938;2022-09-20T05:36:28;2.10;;;0.70;;
74465;SDS011;62916;50.044;15.938;2022-09-20T05:39:10;1.80;;;0.40;;
74465;SDS011;62916;50.044;15.938;2022-09-20T05:41:53;1.90;;;0.70;;
74465;SDS011;62916;50.044;15.938;2022-09-20T05:44:31;3.00;;;0.70;;
74465;SDS011;62916;50.044;15.938;2022-09-20T05:47:19;3.00;;;0.60;;
74465;SDS011;62916;50.044;15.938;2022-09-20T05:49:57;2.50;;;0.50;;
74465;SDS011;62916;50.044;15.938;2022-09-20T05:52:40;2.60;;;0.60;;
74465;SDS011;62916;50.044;15.938;2022-09-20T05:55:20;3.30;;;0.60;;
74465;SDS011;62916;50.044;15.938;2022-09-20T05:58:22;3.20;;;0.50;;
74465;SDS011;62916;50.044;15.938;2022-09-20T06:01:03;2.60;;;0.50;;
74465;SDS011;62916;50.044;15.938;2022-09-20T06:03:41;3.00;;;0.70;;
74465;SDS011;62916;50.044;15.938;2022-09-20T06:06:23;2.70;;;0.60;;
74465;SDS011;62916;50.044;15.938;2022-09-20T06:09:05;2.60;;;0.50;;
74465;SDS011;62916;50.044;15.938;2022-09-20T06:11:56;2.60;;;1.00;;
74465;SDS011;62916;50.044;15.938;2022-09-20T06:14:42;1.40;;;0.50;;
74465;SDS011;62916;50.044;15.938;2022-09-20T06:17:26;3.00;;;0.60;;
74465;SDS011;62916;50.044;15.938;2022-09-20T06:20:14;1.80;;;0.50;;
74465;SDS011;62916;50.044;15.938;2022-09-20T06:22:53;2.40;;;0.50;;
74465;SDS011;62916;50.044;15.938;2022-09-20T06:25:27;1.30;;;0.40;;
74465;SDS011;62916;50.044;15.938;2022-09-20T06:28:03;2.90;;;0.50;;
74465;SDS011;62916;50.044;15.938;2022-09-20T06:30:42;1.80;;;0.40;;
74465;SDS011;62916;50.044;15.938;2022-09-20T06:33:16;1.30;;;0.40;;
74465;SDS011;62916;50.044;15.938;2022-09-20T06:35:48;0.70;;;0.40;;
74465;SDS011;62916;50.044;15.938;2022-09-20T06:41:37;1.90;;;0.40;;
74465;SDS011;62916;50.044;15.938;2022-09-20T06:44:09;1.80;;;0.60;;
74465;SDS011;62916;50.044;15.938;2022-09-20T06:46:40;1.30;;;0.40;;
74465;SDS011;62916;50.044;15.938;2022-09-20T06:49:11;1.10;;;0.30;;
74465;SDS011;62916;50.044;15.938;2022-09-20T06:51:41;0.60;;;0.50;;
74465;SDS011;62916;50.044;15.938;2022-09-20T06:54:13;2.20;;;0.60;;
74465;SDS011;62916;50.044;15.938;2022-09-20T06:56:47;0.80;;;0.60;;
74465;SDS011;62916;50.044;15.938;2022-09-20T06:59:19;0.80;;;0.40;;
74465;SDS011;62916;50.044;15.938;2022-09-20T07:01:50;1.30;;;0.40;;
74465;SDS011;62916;50.044;15.938;2022-09-20T07:04:20;1.90;;;0.50;;
74465;SDS011;62916;50.044;15.938;2022-09-20T07:06:53;0.90;;;0.40;;
74465;SDS011;62916;50.044;15.938;2022-09-20T07:09:35;1.30;;;0.50;;
74465;SDS011;62916;50.044;15.938;2022-09-20T07:12:06;1.30;;;0.30;;
74465;SDS011;62916;50.044;15.938;2022-09-20T07:14:38;0.80;;;0.50;;
74465;SDS011;62916;50.044;15.938;2022-09-20T07:17:09;2.50;;;0.40;;
74465;SDS011;62916;50.044;15.938;2022-09-20T07:19:40;1.50;;;0.70;;
74465;SDS011;62916;50.044;15.938;2022-09-20T07:22:11;1.80;;;0.50;;
74465;SDS011;62916;50.044;15.938;2022-09-20T07:24:41;1.30;;;0.40;;
74465;SDS011;62916;50.044;15.938;2022-09-20T07:27:13;0.90;;;0.40;;
74465;SDS011;62916;50.044;15.938;2022-09-20T07:29:44;1.10;;;0.40;;
74465;SDS011;62916;50.044;15.938;2022-09-20T07:32:15;1.00;;;0.30;;
74465;SDS011;62916;50.044;15.938;2022-09-20T07:34:46;1.30;;;0.30;;
74465;SDS011;62916;50.044;15.938;2022-09-20T07:37:16;1.40;;;0.50;;
74465;SDS011;62916;50.044;15.938;2022-09-20T07:39:47;1.00;;;0.20;;
74465;SDS011;62916;50.044;15.938;2022-09-20T07:42:18;0.70;;;0.50;;
74465;SDS011;62916;50.044;15.938;2022-09-20T07:44:49;1.70;;;0.30;;
74465;SDS011;62916;50.044;15.938;2022-09-20T07:47:21;1.10;;;0.40;;
74465;SDS011;62916;50.044;15.938;2022-09-20T07:49:53;1.20;;;0.70;;
74465;SDS011;62916;50.044;15.938;2022-09-20T07:52:24;0.90;;;0.30;;
74465;SDS011;62916;50.044;15.938;2022-09-20T07:54:55;1.30;;;0.40;;
74465;SDS011;62916;50.044;15.938;2022-09-20T07:57:25;1.10;;;0.30;;
74465;SDS011;62916;50.044;15.938;2022-09-20T07:59:56;0.60;;;0.30;;
74465;SDS011;62916;50.044;15.938;2022-09-20T08:02:27;0.50;;;0.20;;
74465;SDS011;62916;50.044;15.938;2022-09-20T08:04:57;0.70;;;0.50;;
74465;SDS011;62916;50.044;15.938;2022-09-20T08:07:29;0.40;;;0.40;;
74465;SDS011;62916;50.044;15.938;2022-09-20T08:10:00;1.00;;;0.40;;
74465;SDS011;62916;50.044;15.938;2022-09-20T08:12:31;1.00;;;0.30;;
74465;SDS011;62916;50.044;15.938;2022-09-20T08:15:21;0.80;;;0.30;;
74465;SDS011;62916;50.044;15.938;2022-09-20T08:17:52;1.30;;;0.40;;
74465;SDS011;62916;50.044;15.938;2022-09-20T08:20:23;1.20;;;0.20;;
74465;SDS011;62916;50.044;15.938;2022-09-20T08:22:56;0.60;;;0.30;;
74465;SDS011;62916;50.044;15.938;2022-09-20T08:25:49;0.60;;;0.20;;
74465;SDS011;62916;50.044;15.938;2022-09-20T08:28:19;0.60;;;0.30;;
74465;SDS011;62916;50.044;15.938;2022-09-20T08:30:50;0.30;;;0.30;;
74465;SDS011;62916;50.044;15.938;2022-09-20T08:33:21;0.50;;;0.30;;
74465;SDS011;62916;50.044;15.938;2022-09-20T08:35:51;1.10;;;0.30;;
74465;SDS011;62916;50.044;15.938;2022-09-20T08:38:24;1.40;;;0.60;;
74465;SDS011;62916;50.044;15.938;2022-09-20T08:41:18;0.60;;;0.20;;
74465;SDS011;62916;50.044;15.938;2022-09-20T08:43:53;0.50;;;0.20;;
74465;SDS011;62916;50.044;15.938;2022-09-20T08:46:27;0.20;;;0.20;;
74465;SDS011;62916;50.044;15.938;2022-09-20T08:49:03;0.50;;;0.30;;
74465;SDS011;62916;50.044;15.938;2022-09-20T08:51:38;0.60;;;0.30;;
74465;SDS011;62916;50.044;15.938;2022-09-20T08:54:15;1.20;;;0.40;;
74465;SDS011;62916;50.044;15.938;2022-09-20T08:56:46;0.80;;;0.30;;
74465;SDS011;62916;50.044;15.938;2022-09-20T08:59:18;0.60;;;0.30;;
74465;SDS011;62916;50.044;15.938;2022-09-20T09:01:52;0.80;;;0.40;;
74465;SDS011;62916;50.044;15.938;2022-09-20T09:04:23;0.50;;;0.30;;
74465;SDS011;62916;50.044;15.938;2022-09-20T09:07:01;1.20;;;0.60;;
74465;SDS011;62916;50.044;15.938;2022-09-20T09:12:14;1.10;;;0.60;;
74465;SDS011;62916;50.044;15.938;2022-09-20T09:14:48;0.50;;;0.20;;
74465;SDS011;62916;50.044;15.938;2022-09-20T09:17:23;0.40;;;0.30;;
74465;SDS011;62916;50.044;15.938;2022-09-20T09:19:55;0.90;;;0.50;;
74465;SDS011;62916;50.044;15.938;2022-09-20T09:22:29;1.00;;;0.40;;
74465;SDS011;62916;50.044;15.938;2022-09-20T09:25:21;0.50;;;0.40;;
74465;SDS011;62916;50.044;15.938;2022-09-20T09:27:59;0.40;;;0.30;;
74465;SDS011;62916;50.044;15.938;2022-09-20T09:30:33;0.50;;;0.40;;
74465;SDS011;62916;50.044;15.938;2022-09-20T09:33:16;0.20;;;0.20;;
74465;SDS011;62916;50.044;15.938;2022-09-20T09:35:58;0.80;;;0.30;;
74465;SDS011;62916;50.044;15.938;2022-09-20T09:38:34;0.60;;;0.30;;
74465;SDS011;62916;50.044;15.938;2022-09-20T09:41:20;0.40;;;0.20;;
74465;SDS011;62916;50.044;15.938;2022-09-20T09:44:02;0.80;;;0.30;;
74465;SDS011;62916;50.044;15.938;2022-09-20T09:46:37;1.50;;;0.60;;
74465;SDS011;62916;50.044;15.938;2022-09-20T09:49:08;0.30;;;0.30;;
74465;SDS011;62916;50.044;15.938;2022-09-20T09:51:58;0.40;;;0.20;;
74465;SDS011;62916;50.044;15.938;2022-09-20T09:54:31;0.30;;;0.20;;
74465;SDS011;62916;50.044;15.938;2022-09-20T09:57:18;0.40;;;0.30;;
74465;SDS011;62916;50.044;15.938;2022-09-20T10:00:03;0.70;;;0.60;;
74465;SDS011;62916;50.044;15.938;2022-09-20T10:02:53;0.60;;;0.30;;
74465;SDS011;62916;50.044;15.938;2022-09-20T10:05:34;0.30;;;0.30;;
74465;SDS011;62916;50.044;15.938;2022-09-20T10:08:15;1.00;;;0.30;;
74465;SDS011;62916;50.044;15.938;2022-09-20T10:11:01;0.40;;;0.30;;
74465;SDS011;62916;50.044;15.938;2022-09-20T10:13:42;0.90;;;0.90;;
74465;SDS011;62916;50.044;15.938;2022-09-20T10:16:24;0.40;;;0.30;;
74465;SDS011;62916;50.044;15.938;2022-09-20T10:19:05;0.20;;;0.20;;
74465;SDS011;62916;50.044;15.938;2022-09-20T10:21:50;0.50;;;0.30;;
74465;SDS011;62916;50.044;15.938;2022-09-20T10:42:31;0.40;;;0.20;;
74465;SDS011;62916;50.044;15.938;2022-09-20T10:45:27;0.50;;;0.30;;
74465;SDS011;62916;50.044;15.938;2022-09-20T10:48:39;1.60;;;0.30;;
74465;SDS011;62916;50.044;15.938;2022-09-20T10:51:17;0.80;;;0.30;;
74465;SDS011;62916;50.044;15.938;2022-09-20T10:53:57;1.10;;;0.30;;
74465;SDS011;62916;50.044;15.938;2022-09-20T10:56:34;0.60;;;0.20;;
74465;SDS011;62916;50.044;15.938;2022-09-20T10:59:20;0.60;;;0.40;;
74465;SDS011;62916;50.044;15.938;2022-09-20T11:02:05;0.30;;;0.30;;
74465;SDS011;62916;50.044;15.938;2022-09-20T11:08:04;0.80;;;0.30;;
74465;SDS011;62916;50.044;15.938;2022-09-20T11:10:41;0.40;;;0.20;;
74465;SDS011;62916;50.044;15.938;2022-09-20T11:13:21;0.10;;;0.10;;
74465;SDS011;62916;50.044;15.938;2022-09-20T11:15:59;0.70;;;0.30;;
74465;SDS011;62916;50.044;15.938;2022-09-20T11:18:42;1.00;;;0.30;;
74465;SDS011;62916;50.044;15.938;2022-09-20T11:21:20;0.50;;;0.40;;
74465;SDS011;62916;50.044;15.938;2022-09-20T11:23:57;0.30;;;0.30;;
74465;SDS011;62916;50.044;15.938;2022-09-20T11:26:46;0.30;;;0.30;;
74465;SDS011;62916;50.044;15.938;2022-09-20T11:29:23;0.60;;;0.40;;
74465;SDS011;62916;50.044;15.938;2022-09-20T11:32:07;0.30;;;0.20;;
74465;SDS011;62916;50.044;15.938;2022-09-20T11:34:49;0.70;;;0.70;;
74465;SDS011;62916;50.044;15.938;2022-09-20T11:37:24;1.20;;;0.30;;
74465;SDS011;62916;50.044;15.938;2022-09-20T11:40:06;0.30;;;0.30;;
74465;SDS011;62916;50.044;15.938;2022-09-20T11:42:47;0.20;;;0.20;;
74465;SDS011;62916;50.044;15.938;2022-09-20T11:45:23;1.00;;;0.30;;
74465;SDS011;62916;50.044;15.938;2022-09-20T11:47:57;0.60;;;0.30;;
74465;SDS011;62916;50.044;15.938;2022-09-20T11:50:41;0.50;;;0.20;;
74465;SDS011;62916;50.044;15.938;2022-09-20T11:53:28;0.30;;;0.20;;
74465;SDS011;62916;50.044;15.938;2022-09-20T12:00:08;0.70;;;0.70;;
74465;SDS011;62916;50.044;15.938;2022-09-20T12:02:42;0.40;;;0.30;;
74465;SDS011;62916;50.044;15.938;2022-09-20T12:05:28;0.60;;;0.30;;
74465;SDS011;62916;50.044;15.938;2022-09-20T12:08:02;0.40;;;0.20;;
74465;SDS011;62916;50.044;15.938;2022-09-20T12:13:05;0.90;;;0.40;;
74465;SDS011;62916;50.044;15.938;2022-09-20T12:15:55;1.10;;;0.60;;
74465;SDS011;62916;50.044;15.938;2022-09-20T12:18:35;0.80;;;0.20;;
74465;SDS011;62916;50.044;15.938;2022-09-20T12:21:15;0.70;;;0.30;;
74465;SDS011;62916;50.044;15.938;2022-09-20T12:26:48;0.70;;;0.30;;
74465;SDS011;62916;50.044;15.938;2022-09-20T12:39:01;1.10;;;0.40;;
74465;SDS011;62916;50.044;15.938;2022-09-20T12:41:47;0.70;;;0.30;;
74465;SDS011;62916;50.044;15.938;2022-09-20T12:44:26;1.10;;;0.40;;
74465;SDS011;62916;50.044;15.938;2022-09-20T12:47:01;0.90;;;0.30;;
74465;SDS011;62916;50.044;15.938;2022-09-20T12:49:36;0.90;;;0.30;;
74465;SDS011;62916;50.044;15.938;2022-09-20T12:55:32;1.30;;;0.30;;
74465;SDS011;62916;50.044;15.938;2022-09-20T12:58:17;0.90;;;0.50;;
74465;SDS011;62916;50.044;15.938;2022-09-20T13:01:25;0.70;;;0.60;;
74465;SDS011;62916;50.044;15.938;2022-09-20T13:07:31;1.50;;;0.30;;
74465;SDS011;62916;50.044;15.938;2022-09-20T13:15:40;1.00;;;0.60;;
74465;SDS011;62916;50.044;15.938;2022-09-20T13:18:19;0.80;;;0.70;;
74465;SDS011;62916;50.044;15.938;2022-09-20T13:20:52;2.00;;;0.50;;
74465;SDS011;62916;50.044;15.938;2022-09-20T13:23:24;1.70;;;0.50;;
74465;SDS011;62916;50.044;15.938;2022-09-20T13:25:58;1.70;;;0.50;;
74465;SDS011;62916;50.044;15.938;2022-09-20T13:28:33;1.00;;;0.60;;
74465;SDS011;62916;50.044;15.938;2022-09-20T13:34:16;1.00;;;0.60;;
74465;SDS011;62916;50.044;15.938;2022-09-20T13:36:51;1.90;;;0.50;;
74465;SDS011;62916;50.044;15.938;2022-09-20T13:39:34;0.70;;;0.50;;
74465;SDS011;62916;50.044;15.938;2022-09-20T13:42:07;0.60;;;0.60;;
74465;SDS011;62916;50.044;15.938;2022-09-20T13:44:43;2.40;;;0.60;;
74465;SDS011;62916;50.044;15.938;2022-09-20T13:47:24;0.90;;;0.50;;
74465;SDS011;62916;50.044;15.938;2022-09-20T13:50:01;1.20;;;0.80;;
74465;SDS011;62916;50.044;15.938;2022-09-20T13:52:44;1.10;;;0.40;;
74465;SDS011;62916;50.044;15.938;2022-09-20T13:55:24;0.70;;;0.50;;
74465;SDS011;62916;50.044;15.938;2022-09-20T13:57:58;0.60;;;0.40;;
74465;SDS011;62916;50.044;15.938;2022-09-20T14:00:31;1.60;;;0.40;;
74465;SDS011;62916;50.044;15.938;2022-09-20T14:03:03;0.80;;;0.50;;
74465;SDS011;62916;50.044;15.938;2022-09-20T14:05:35;0.40;;;0.40;;
74465;SDS011;62916;50.044;15.938;2022-09-20T14:08:06;0.40;;;0.40;;
74465;SDS011;62916;50.044;15.938;2022-09-20T14:10:45;0.90;;;0.30;;
74465;SDS011;62916;50.044;15.938;2022-09-20T14:13:18;0.50;;;0.50;;
74465;SDS011;62916;50.044;15.938;2022-09-20T14:15:49;1.40;;;0.40;;
74465;SDS011;62916;50.044;15.938;2022-09-20T14:18:20;0.70;;;0.40;;
74465;SDS011;62916;50.044;15.938;2022-09-20T14:20:51;1.10;;;0.40;;
74465;SDS011;62916;50.044;15.938;2022-09-20T14:23:24;0.30;;;0.30;;
74465;SDS011;62916;50.044;15.938;2022-09-20T14:26:07;0.50;;;0.40;;
74465;SDS011;62916;50.044;15.938;2022-09-20T14:28:49;1.00;;;0.40;;
74465;SDS011;62916;50.044;15.938;2022-09-20T14:31:20;0.70;;;0.40;;
74465;SDS011;62916;50.044;15.938;2022-09-20T14:33:55;0.80;;;0.50;;
74465;SDS011;62916;50.044;15.938;2022-09-20T14:36:29;5.80;;;0.90;;
74465;SDS011;62916;50.044;15.938;2022-09-20T14:39:00;8.20;;;1.20;;
74465;SDS011;62916;50.044;15.938;2022-09-20T14:41:33;6.80;;;1.10;;
74465;SDS011;62916;50.044;15.938;2022-09-20T14:44:12;6.80;;;1.70;;
74465;SDS011;62916;50.044;15.938;2022-09-20T14:46:51;5.30;;;1.50;;
74465;SDS011;62916;50.044;15.938;2022-09-20T14:49:29;7.00;;;1.00;;
74465;SDS011;62916;50.044;15.938;2022-09-20T14:55:17;5.80;;;1.00;;
74465;SDS011;62916;50.044;15.938;2022-09-20T14:58:01;5.40;;;1.10;;
74465;SDS011;62916;50.044;15.938;2022-09-20T15:03:20;3.50;;;1.10;;
74465;SDS011;62916;50.044;15.938;2022-09-20T15:05:55;4.90;;;1.00;;
74465;SDS011;62916;50.044;15.938;2022-09-20T15:08:26;4.60;;;0.80;;
74465;SDS011;62916;50.044;15.938;2022-09-20T15:10:59;3.60;;;0.70;;
74465;SDS011;62916;50.044;15.938;2022-09-20T15:13:30;3.60;;;0.90;;
74465;SDS011;62916;50.044;15.938;2022-09-20T15:16:02;3.40;;;0.90;;
74465;SDS011;62916;50.044;15.938;2022-09-20T15:18:34;1.90;;;0.80;;
74465;SDS011;62916;50.044;15.938;2022-09-20T15:21:08;3.70;;;0.90;;
74465;SDS011;62916;50.044;15.938;2022-09-20T15:23:40;2.60;;;1.00;;
74465;SDS011;62916;50.044;15.938;2022-09-20T15:26:10;2.30;;;0.90;;
74465;SDS011;62916;50.044;15.938;2022-09-20T15:28:42;4.20;;;1.50;;
74465;SDS011;62916;50.044;15.938;2022-09-20T15:31:13;1.50;;;0.80;;
74465;SDS011;62916;50.044;15.938;2022-09-20T15:33:45;1.30;;;0.70;;
74465;SDS011;62916;50.044;15.938;2022-09-20T15:36:16;1.70;;;0.80;;
74465;SDS011;62916;50.044;15.938;2022-09-20T15:38:47;1.90;;;0.70;;
74465;SDS011;62916;50.044;15.938;2022-09-20T15:41:21;3.00;;;1.30;;
74465;SDS011;62916;50.044;15.938;2022-09-20T15:43:57;3.50;;;1.00;;
74465;SDS011;62916;50.044;15.938;2022-09-20T15:46:28;2.90;;;0.80;;
74465;SDS011;62916;50.044;15.938;2022-09-20T15:49:00;2.30;;;0.90;;
74465;SDS011;62916;50.044;15.938;2022-09-20T15:51:33;5.40;;;1.20;;
74465;SDS011;62916;50.044;15.938;2022-09-20T15:54:05;3.20;;;1.00;;
74465;SDS011;62916;50.044;15.938;2022-09-20T15:56:40;1.30;;;0.90;;
74465;SDS011;62916;50.044;15.938;2022-09-20T15:59:11;1.80;;;0.70;;
74465;SDS011;62916;50.044;15.938;2022-09-20T16:01:43;1.30;;;1.00;;
74465;SDS011;62916;50.044;15.938;2022-09-20T16:04:15;2.20;;;0.60;;
74465;SDS011;62916;50.044;15.938;2022-09-20T16:06:48;2.10;;;0.90;;
74465;SDS011;62916;50.044;15.938;2022-09-20T16:09:19;2.80;;;1.20;;
74465;SDS011;62916;50.044;15.938;2022-09-20T16:11:50;1.70;;;1.00;;
74465;SDS011;62916;50.044;15.938;2022-09-20T16:14:25;1.90;;;0.80;;
74465;SDS011;62916;50.044;15.938;2022-09-20T16:16:56;1.50;;;0.70;;
74465;SDS011;62916;50.044;15.938;2022-09-20T16:19:26;3.50;;;0.90;;
74465;SDS011;62916;50.044;15.938;2022-09-20T16:21:57;1.50;;;0.90;;
74465;SDS011;62916;50.044;15.938;2022-09-20T16:24:29;1.40;;;1.00;;
74465;SDS011;62916;50.044;15.938;2022-09-20T16:27:01;1.60;;;0.80;;
74465;SDS011;62916;50.044;15.938;2022-09-20T16:29:34;1.20;;;0.80;;
74465;SDS011;62916;50.044;15.938;2022-09-20T16:32:05;0.90;;;0.70;;
74465;SDS011;62916;50.044;15.938;2022-09-20T16:34:36;1.40;;;0.80;;
74465;SDS011;62916;50.044;15.938;2022-09-20T16:37:09;0.90;;;0.70;;
74465;SDS011;62916;50.044;15.938;2022-09-20T16:39:42;1.70;;;0.70;;
74465;SDS011;62916;50.044;15.938;2022-09-20T16:42:16;1.70;;;0.80;;
74465;SDS011;62916;50.044;15.938;2022-09-20T16:44:47;1.80;;;0.70;;
74465;SDS011;62916;50.044;15.938;2022-09-20T16:47:18;1.40;;;0.70;;
74465;SDS011;62916;50.044;15.938;2022-09-20T16:49:51;0.60;;;0.60;;
74465;SDS011;62916;50.044;15.938;2022-09-20T16:52:23;1.40;;;0.70;;
74465;SDS011;62916;50.044;15.938;2022-09-20T16:54:54;1.80;;;0.90;;
74465;SDS011;62916;50.044;15.938;2022-09-20T16:57:25;1.70;;;1.10;;
74465;SDS011;62916;50.044;15.938;2022-09-20T16:59:56;0.90;;;0.80;;
74465;SDS011;62916;50.044;15.938;2022-09-20T17:02:27;1.10;;;1.00;;
74465;SDS011;62916;50.044;15.938;2022-09-20T17:04:58;1.30;;;0.50;;
74465;SDS011;62916;50.044;15.938;2022-09-20T17:07:29;4.60;;;1.00;;
74465;SDS011;62916;50.044;15.938;2022-09-20T17:10:00;3.90;;;0.60;;
74465;SDS011;62916;50.044;15.938;2022-09-20T17:12:31;3.40;;;0.80;;
74465;SDS011;62916;50.044;15.938;2022-09-20T17:15:09;2.00;;;0.80;;
74465;SDS011;62916;50.044;15.938;2022-09-20T17:17:40;1.90;;;0.70;;
74465;SDS011;62916;50.044;15.938;2022-09-20T17:20:11;3.50;;;0.70;;